Time;durP1;ratioP1;P1;durP2;ratioP2;P2;SDS_P1;SDS_P2;PMS_P1;PMS_P2;Temp;Humidity;BMP_temperature;BMP_pressure;BME280_temperature;BME280_humidity;BME280_pressure;Samples;Min_cycle;Max_cycle;Signal;HPM_P1;HPM_P2
2023/11/07 00:02:02;;;;;;;5.55;3.17;;;;;;;15.34;65.03;99967.03;5132274;27;20041;-40
2023/11/07 00:04:28;;;;;;;11.65;3.83;;;;;;;15.41;65.40;99966.94;5132409;27;20490;-40
2023/11/07 00:06:53;;;;;;;6.88;3.53;;;;;;;15.02;65.67;99969.97;5132266;27;20046;-40
2023/11/07 00:09:19;;;;;;;7.18;4.00;;;;;;;15.09;66.26;99980.59;5132296;27;20374;-39
2023/11/07 00:11:46;;;;;;;9.98;3.70;;;;;;;14.96;66.21;99989.63;5124700;27;20447;-40
2023/11/07 00:14:12;;;;;;;8.27;3.80;;;;;;;14.99;66.28;99994.53;5111628;28;20028;-40
2023/11/07 00:16:39;;;;;;;7.03;3.60;;;;;;;14.92;66.61;99987.63;5111912;28;20024;-40
2023/11/07 00:19:05;;;;;;;7.50;3.80;;;;;;;14.95;66.71;99992.56;5112191;28;20026;-40
2023/11/07 00:21:31;;;;;;;7.50;4.13;;;;;;;15.11;66.33;99989.22;5111393;28;20398;-39
2023/11/07 00:23:56;;;;;;;8.73;4.03;;;;;;;15.05;65.55;99990.13;5111770;28;20103;-40
2023/11/07 00:26:21;;;;;;;7.07;4.00;;;;;;;14.93;66.55;99989.28;5111856;28;20427;-39
2023/11/07 00:28:48;;;;;;;11.15;3.80;;;;;;;14.97;66.36;99991.28;5111695;28;20527;-39
2023/11/07 00:31:14;;;;;;;8.63;4.32;;;;;;;15.09;66.20;99990.50;5111778;28;20028;-40
2023/11/07 00:33:39;;;;;;;10.10;4.10;;;;;;;14.99;66.15;99978.47;5110777;28;20020;-40
2023/11/07 00:36:05;;;;;;;9.48;4.10;;;;;;;15.18;66.08;99987.28;5111651;28;20031;-40
2023/11/07 00:38:31;;;;;;;9.75;3.83;;;;;;;15.15;65.94;99979.69;5111772;28;20054;-39
2023/11/07 00:40:56;;;;;;;10.10;4.22;;;;;;;15.17;65.90;99988.34;5111575;28;20134;-40
2023/11/07 00:43:21;;;;;;;9.35;4.32;;;;;;;15.16;64.87;99989.38;5111721;28;20463;-39
2023/11/07 00:45:47;;;;;;;9.15;4.35;;;;;;;15.23;64.67;99998.16;5111503;28;20480;-40
2023/11/07 00:48:13;;;;;;;8.30;4.10;;;;;;;15.25;64.83;99998.72;5111185;28;20101;-40
2023/11/07 00:50:38;;;;;;;6.47;4.15;;;;;;;15.24;64.80;99996.28;5110809;28;20023;-40
2023/11/07 00:53:03;;;;;;;13.55;3.83;;;;;;;15.06;64.27;99989.09;5111526;28;20114;-39
2023/11/07 00:55:29;;;;;;;8.85;4.13;;;;;;;15.14;64.27;99990.66;5111094;28;20033;-41
2023/11/07 00:57:55;;;;;;;7.10;4.18;;;;;;;15.05;64.72;100000.88;5112058;28;20016;-39
2023/11/07 01:00:21;;;;;;;7.72;3.97;;;;;;;15.04;64.79;100000.06;5115738;28;20031;-39
2023/11/07 01:02:47;;;;;;;6.95;4.13;;;;;;;14.93;64.62;99992.78;5115484;28;20099;-39
2023/11/07 01:05:13;;;;;;;8.35;4.28;;;;;;;14.72;66.67;99990.56;5115171;28;20102;-42
2023/11/07 01:07:39;;;;;;;9.40;4.15;;;;;;;14.78;66.30;100003.88;5114928;28;20047;-39
2023/11/07 01:10:06;;;;;;;9.20;4.00;;;;;;;14.78;65.97;100009.22;5115137;28;20103;-39
2023/11/07 01:12:31;;;;;;;6.63;4.00;;;;;;;14.83;65.49;100017.44;5115138;28;20015;-40
2023/11/07 01:14:57;;;;;;;11.40;4.57;;;;;;;14.98;65.43;100014.38;5115003;28;20452;-40
2023/11/07 01:17:23;;;;;;;7.90;4.25;;;;;;;14.98;65.26;100022.41;5114676;28;20443;-40
2023/11/07 01:19:49;;;;;;;9.07;4.18;;;;;;;14.87;64.56;100017.78;5114751;28;20031;-39
2023/11/07 01:22:14;;;;;;;8.70;4.35;;;;;;;14.80;65.31;100014.38;5114718;28;20039;-40
2023/11/07 01:24:40;;;;;;;11.68;4.30;;;;;;;14.66;66.29;100019.06;5114887;28;20028;-40
2023/11/07 01:27:05;;;;;;;9.20;4.30;;;;;;;14.45;67.92;100023.78;5114697;28;20023;-37
2023/11/07 01:29:30;;;;;;;8.77;4.32;;;;;;;14.62;67.31;100024.06;5114653;28;20115;-40
2023/11/07 01:31:56;;;;;;;9.38;4.70;;;;;;;14.72;65.75;100026.22;5114460;28;20027;-40
2023/11/07 01:34:21;;;;;;;8.02;4.00;;;;;;;14.76;65.79;100031.94;5114666;28;20459;-38
2023/11/07 01:36:47;;;;;;;8.52;4.00;;;;;;;14.75;65.90;100030.28;5114518;28;20110;-38
2023/11/07 01:39:13;;;;;;;7.40;3.70;;;;;;;14.81;65.36;100029.38;5114503;28;20035;-39
2023/11/07 01:41:39;;;;;;;10.13;4.00;;;;;;;14.55;65.87;100031.31;5114562;28;20023;-40
2023/11/07 01:44:04;;;;;;;9.05;4.30;;;;;;;14.46;66.00;100030.78;5114801;28;20058;-39
2023/11/07 01:46:30;;;;;;;6.93;3.92;;;;;;;14.52;65.85;100041.63;5114540;28;20043;-40
2023/11/07 01:48:56;;;;;;;8.88;3.90;;;;;;;14.39;65.63;100032.72;5114545;28;20364;-40
2023/11/07 01:51:23;;;;;;;6.22;3.65;;;;;;;14.22;65.88;100036.97;5114408;28;20210;-39
2023/11/07 01:53:49;;;;;;;6.40;3.67;;;;;;;14.25;65.68;100042.72;5134736;27;20511;-40
2023/11/07 01:56:14;;;;;;;6.95;3.35;;;;;;;14.25;66.18;100033.88;5134623;27;20019;-40
2023/11/07 01:58:40;;;;;;;6.63;3.85;;;;;;;14.47;64.53;100043.13;5134588;27;20027;-40
2023/11/07 02:01:06;;;;;;;9.25;3.70;;;;;;;14.47;64.13;100048.47;5134916;27;20007;-40
2023/11/07 02:03:32;;;;;;;9.70;3.97;;;;;;;14.46;63.72;100052.19;5134485;27;20083;-40
2023/11/07 02:05:58;;;;;;;6.13;3.65;;;;;;;14.39;64.44;100048.78;5134544;27;20023;-39
2023/11/07 02:08:25;;;;;;;5.70;3.70;;;;;;;14.42;64.37;100048.31;5134023;27;20103;-40
2023/11/07 02:10:51;;;;;;;9.00;4.00;;;;;;;14.36;64.58;100054.56;5134314;27;20027;-36
2023/11/07 02:13:16;;;;;;;7.47;3.70;;;;;;;14.27;64.39;100051.34;5134469;27;20087;-40
2023/11/07 02:15:41;;;;;;;7.95;3.90;;;;;;;14.30;64.78;100050.09;5134217;27;20484;-39
2023/11/07 02:18:07;;;;;;;8.82;3.42;;;;;;;14.42;64.09;100052.88;5134120;27;20140;-40
2023/11/07 02:20:36;;;;;;;6.25;3.47;;;;;;;14.41;64.20;100060.09;5134349;27;20508;-40
2023/11/07 02:23:14;;;;;;;6.03;3.50;;;;;;;14.40;63.93;100062.97;5133976;27;20023;-39
2023/11/07 02:25:39;;;;;;;11.07;3.90;;;;;;;14.37;63.41;100066.09;5115508;27;20077;-40
2023/11/07 02:28:06;;;;;;;8.45;3.63;;;;;;;14.36;63.71;100067.94;5134149;27;20717;-39
2023/11/07 02:30:32;;;;;;;8.45;3.85;;;;;;;14.22;64.22;100064.59;5134425;27;20027;-39
2023/11/07 02:33:04;;;;;;;6.60;4.20;;;;;;;14.09;64.22;100067.38;5133954;27;20054;-40
2023/11/07 02:35:29;;;;;;;10.52;3.60;;;;;;;13.93;64.75;100057.19;5134101;27;20015;-39
2023/11/07 02:37:55;;;;;;;8.50;4.03;;;;;;;14.13;64.63;100059.72;5123904;27;20118;-40
2023/11/07 02:40:20;;;;;;;7.38;3.80;;;;;;;13.97;64.48;100072.59;5113447;28;20028;-40
2023/11/07 02:42:45;;;;;;;9.80;4.18;;;;;;;13.77;65.14;100078.09;5113323;28;20410;-38
2023/11/07 02:45:11;;;;;;;7.10;3.80;;;;;;;13.91;64.91;100068.13;5113320;28;20056;-40
2023/11/07 02:47:37;;;;;;;8.48;4.22;;;;;;;13.94;64.96;100062.34;5113136;28;20039;-39
2023/11/07 02:50:02;;;;;;;8.27;4.00;;;;;;;13.98;65.49;100066.22;5112885;28;20092;-39
2023/11/07 02:52:28;;;;;;;9.55;4.22;;;;;;;14.11;64.55;100070.66;5112890;28;20019;-40
2023/11/07 02:54:53;;;;;;;12.18;4.03;;;;;;;14.02;64.55;100067.41;5113141;28;20030;-37
2023/11/07 02:57:19;;;;;;;8.68;4.10;;;;;;;14.04;64.63;100067.19;5112687;28;20064;-41
2023/11/07 02:59:47;;;;;;;7.35;3.90;;;;;;;13.90;66.08;100071.84;5112923;28;20028;-40
2023/11/07 03:02:15;;;;;;;8.10;4.13;;;;;;;13.93;66.30;100075.94;5113031;28;20443;-39
2023/11/07 03:04:42;;;;;;;9.40;4.55;;;;;;;14.04;65.72;100085.94;5113188;28;20100;-40
2023/11/07 03:07:07;;;;;;;7.00;3.78;;;;;;;14.05;65.59;100082.19;5129783;27;20032;-38
2023/11/07 03:09:32;;;;;;;9.20;4.05;;;;;;;14.05;65.27;100085.72;5133270;27;20027;-40
2023/11/07 03:11:58;;;;;;;7.40;3.85;;;;;;;13.96;65.64;100083.53;5133360;27;20038;-40
2023/11/07 03:14:23;;;;;;;8.70;3.85;;;;;;;14.06;65.27;100087.34;5133092;27;20026;-40
2023/11/07 03:16:49;;;;;;;11.25;4.03;;;;;;;14.05;64.98;100084.88;5132514;27;20487;-40
2023/11/07 03:19:14;;;;;;;8.63;4.18;;;;;;;14.06;64.97;100089.22;5129845;27;20027;-40
2023/11/07 03:21:39;;;;;;;7.25;3.85;;;;;;;14.05;64.71;100093.75;5132063;27;20022;-39
2023/11/07 03:24:08;;;;;;;10.38;4.25;;;;;;;13.83;65.92;100103.16;5132729;27;20470;-40
2023/11/07 03:26:34;;;;;;;10.88;4.20;;;;;;;13.88;65.72;100095.31;5133036;27;20034;-39
2023/11/07 03:28:59;;;;;;;9.25;4.18;;;;;;;13.87;65.71;100101.69;5132931;27;20046;-39
2023/11/07 03:31:25;;;;;;;9.82;3.95;;;;;;;13.93;65.18;100102.69;5132747;27;20403;-39
2023/11/07 03:33:51;;;;;;;8.57;4.40;;;;;;;13.91;65.28;100102.09;5119633;27;20340;-38
2023/11/07 03:36:17;;;;;;;9.95;4.38;;;;;;;13.81;65.72;100098.03;5114629;27;20024;-40
2023/11/07 03:38:43;;;;;;;11.00;4.25;;;;;;;13.88;65.11;100109.50;5111801;28;20035;-40
2023/11/07 03:41:09;;;;;;;9.85;4.15;;;;;;;13.88;65.70;100108.69;5111893;28;20031;-39
2023/11/07 03:43:34;;;;;;;9.73;4.13;;;;;;;13.79;65.82;100120.69;5111818;28;20019;-39
2023/11/07 03:46:00;;;;;;;11.07;4.13;;;;;;;13.81;65.78;100111.41;5111960;28;20031;-40
2023/11/07 03:48:25;;;;;;;8.95;4.30;;;;;;;13.92;65.57;100123.28;5112120;28;20026;-39
2023/11/07 03:50:53;;;;;;;8.85;4.03;;;;;;;13.72;66.02;100125.25;5112098;28;20074;-40
2023/11/07 03:53:19;;;;;;;8.05;4.38;;;;;;;13.74;66.32;100120.50;5112118;28;20035;-40
2023/11/07 03:55:44;;;;;;;11.07;4.13;;;;;;;13.66;66.88;100121.56;5112073;28;20462;-40
2023/11/07 03:58:10;;;;;;;7.20;4.00;;;;;;;13.56;67.28;100119.38;5111683;28;20030;-40
2023/11/07 04:00:35;;;;;;;12.68;4.30;;;;;;;13.57;67.46;100120.19;5111934;28;20035;-40
2023/11/07 04:03:01;;;;;;;8.52;4.40;;;;;;;13.67;66.33;100120.56;5111705;28;20024;-40
2023/11/07 04:05:28;;;;;;;8.55;3.90;;;;;;;13.67;66.95;100120.56;5111600;28;20073;-40
2023/11/07 04:07:55;;;;;;;9.52;4.00;;;;;;;13.77;66.60;100120.09;5111651;28;20029;-40
2023/11/07 04:10:21;;;;;;;8.82;3.78;;;;;;;13.82;65.37;100115.72;5111701;28;20032;-39
2023/11/07 04:12:47;;;;;;;12.65;4.15;;;;;;;13.69;65.45;100110.47;5112906;27;20024;-40
2023/11/07 04:15:12;;;;;;;6.88;4.22;;;;;;;13.73;64.77;100105.47;5130030;27;20011;-40
2023/11/07 04:17:39;;;;;;;12.48;5.05;;;;;;;13.69;64.81;100103.25;5119667;27;20019;-40
2023/11/07 04:20:09;;;;;;;8.07;4.97;;;;;;;13.60;65.27;100104.53;5111482;28;20483;-40
2023/11/07 04:22:34;;;;;;;8.13;4.50;;;;;;;13.58;65.36;100111.13;5111723;28;20024;-40
2023/11/07 04:25:01;;;;;;;14.48;4.68;;;;;;;13.37;65.98;100109.59;5111424;28;20035;-40
2023/11/07 04:27:26;;;;;;;9.30;4.18;;;;;;;13.34;66.37;100123.38;5110751;28;20023;-40
2023/11/07 04:29:52;;;;;;;8.60;4.22;;;;;;;13.28;66.64;100115.13;5115336;27;20016;-40
2023/11/07 04:32:17;;;;;;;9.32;3.90;;;;;;;13.08;66.80;100117.09;5111022;28;20020;-40
2023/11/07 04:34:43;;;;;;;5.82;3.55;;;;;;;13.16;66.51;100118.69;5111097;28;20031;-40
2023/11/07 04:37:09;;;;;;;15.80;4.72;;;;;;;13.17;66.50;100126.47;5111770;28;20445;-40
2023/11/07 04:39:34;;;;;;;13.23;4.60;;;;;;;13.09;67.00;100122.19;5131676;28;20370;-40
2023/11/07 04:42:01;;;;;;;9.35;4.43;;;;;;;13.15;66.81;100127.72;5131884;28;20123;-40
2023/11/07 04:44:27;;;;;;;17.33;5.18;;;;;;;13.13;67.02;100129.81;5132041;28;20496;-39
2023/11/07 04:46:52;;;;;;;10.60;4.20;;;;;;;13.15;67.01;100125.06;5128964;28;20407;-40
2023/11/07 04:49:18;;;;;;;25.38;13.30;;;;;;;13.72;81.84;100141.28;5111073;28;20047;-41
2023/11/07 04:51:43;;;;;;;27.10;13.02;;;;;;;13.95;76.05;100141.56;5112512;28;20363;-41
2023/11/07 04:54:09;;;;;;;11.15;5.47;;;;;;;13.85;68.14;100146.56;5113920;28;20027;-40
2023/11/07 04:56:34;;;;;;;19.67;8.70;;;;;;;13.85;66.54;100150.06;5111812;28;20027;-41
2023/11/07 04:59:00;;;;;;;36.15;13.55;;;;;;;13.75;65.88;100155.06;5111108;28;21586;-40
2023/11/07 05:01:25;;;;;;;23.73;9.52;;;;;;;13.69;65.48;100151.38;5110054;28;20038;-41
2023/11/07 05:03:52;;;;;;;18.98;7.68;;;;;;;13.70;65.60;100154.88;5111231;28;20020;-40
2023/11/07 05:06:19;;;;;;;17.55;7.32;;;;;;;13.62;65.02;100155.94;5111280;28;20015;-40
2023/11/07 05:08:45;;;;;;;16.50;4.93;;;;;;;13.56;64.41;100164.81;5111328;28;20027;-40
2023/11/07 05:11:12;;;;;;;13.38;5.15;;;;;;;13.40;65.36;100174.16;5109728;28;20035;-41
2023/11/07 05:13:38;;;;;;;9.95;4.80;;;;;;;13.57;64.87;100179.00;5109394;28;20204;-43
2023/11/07 05:16:04;;;;;;;9.98;5.60;;;;;;;13.59;64.83;100177.75;5109147;28;20028;-40
2023/11/07 05:18:30;;;;;;;12.65;5.55;;;;;;;13.70;64.48;100186.97;5108767;28;20024;-41
2023/11/07 05:20:56;;;;;;;9.05;4.65;;;;;;;13.85;64.48;100197.38;5108952;28;20034;-43
2023/11/07 05:23:22;;;;;;;12.38;4.57;;;;;;;13.93;63.92;100191.78;5109404;28;20043;-40
2023/11/07 05:25:48;;;;;;;9.73;4.55;;;;;;;14.04;64.17;100188.44;5110021;28;20098;-41
2023/11/07 05:28:13;;;;;;;9.73;4.30;;;;;;;14.25;63.63;100197.97;5092142;28;20111;-41
2023/11/07 05:30:39;;;;;;;9.82;5.43;;;;;;;14.41;63.12;100196.63;5110944;28;20479;-41
2023/11/07 05:33:05;;;;;;;8.70;4.40;;;;;;;14.58;62.88;100207.66;5111256;28;20424;-41
2023/11/07 05:35:31;;;;;;;11.02;5.03;;;;;;;14.80;62.94;100200.03;5110682;28;20033;-38
2023/11/07 05:37:57;;;;;;;12.07;4.47;;;;;;;15.06;61.56;100198.16;5110639;28;20099;-40
2023/11/07 05:40:23;;;;;;;11.10;4.35;;;;;;;15.20;62.37;100194.28;5111236;28;20038;-40
2023/11/07 05:42:52;;;;;;;9.30;4.50;;;;;;;15.43;62.26;100192.78;5111029;28;20098;-39
2023/11/07 05:45:18;;;;;;;10.32;4.93;;;;;;;15.77;61.36;100190.56;5113750;28;20141;-41
2023/11/07 05:47:44;;;;;;;19.10;5.28;;;;;;;16.06;59.87;100190.78;5115013;28;20048;-41
2023/11/07 05:50:10;;;;;;;16.70;6.13;;;;;;;16.30;58.17;100197.84;5114725;28;20031;-42
2023/11/07 05:52:36;;;;;;;17.63;6.22;;;;;;;16.57;57.86;100192.06;5114858;28;20049;-41
2023/11/07 05:55:03;;;;;;;16.48;6.53;;;;;;;16.87;57.22;100199.22;5113784;28;20035;-40
2023/11/07 05:57:30;;;;;;;18.80;6.53;;;;;;;17.29;55.36;100199.09;5113883;28;20027;-41
2023/11/07 05:59:56;;;;;;;14.02;5.63;;;;;;;17.67;52.71;100211.97;5113443;28;20110;-40
2023/11/07 06:02:21;;;;;;;16.55;5.38;;;;;;;17.55;52.76;100211.19;5113551;28;20024;-42
2023/11/07 06:04:47;;;;;;;23.58;5.78;;;;;;;17.50;52.96;100214.59;5113526;28;20107;-42
2023/11/07 06:07:12;;;;;;;20.85;6.00;;;;;;;17.72;53.56;100220.13;5113934;28;20401;-40
2023/11/07 06:09:38;;;;;;;13.70;5.30;;;;;;;17.88;52.51;100218.59;5113994;28;20020;-43
2023/11/07 06:12:03;;;;;;;13.90;5.47;;;;;;;18.22;51.38;100223.25;5113966;28;20020;-42
2023/11/07 06:14:29;;;;;;;19.20;6.80;;;;;;;18.60;51.59;100227.13;5113883;28;20106;-41
2023/11/07 06:16:54;;;;;;;10.32;5.20;;;;;;;18.82;50.67;100221.84;5113300;28;20031;-41
2023/11/07 06:19:20;;;;;;;13.55;4.80;;;;;;;18.98;50.06;100221.00;5113971;28;20016;-42
2023/11/07 06:21:48;;;;;;;12.68;4.80;;;;;;;19.21;49.40;100225.38;5114865;28;20386;-42
2023/11/07 06:24:14;;;;;;;12.98;4.93;;;;;;;19.62;47.42;100220.50;5114273;28;20084;-40
2023/11/07 06:26:40;;;;;;;9.63;4.43;;;;;;;19.95;46.89;100223.31;5113204;28;20015;-41
2023/11/07 06:29:05;;;;;;;10.13;4.55;;;;;;;19.88;46.55;100221.66;5113528;28;20024;-40
2023/11/07 06:31:31;;;;;;;7.90;4.10;;;;;;;20.33;45.34;100214.25;5114025;28;20032;-40
2023/11/07 06:33:56;;;;;;;11.18;3.85;;;;;;;20.48;45.44;100219.78;5113532;28;20029;-41
2023/11/07 06:36:24;;;;;;;10.25;3.97;;;;;;;20.96;44.86;100228.03;5113676;28;20414;-41
2023/11/07 06:38:50;;;;;;;12.73;4.72;;;;;;;20.98;43.51;100230.44;5113487;28;20436;-42
2023/11/07 06:41:17;;;;;;;10.73;3.88;;;;;;;21.40;43.34;100235.00;5113609;28;20019;-41
2023/11/07 06:43:45;;;;;;;26.80;4.13;;;;;;;21.66;42.38;100233.28;5114004;28;20015;-40
2023/11/07 06:46:11;;;;;;;9.88;3.53;;;;;;;21.67;42.00;100237.63;5113078;28;20764;-39
2023/11/07 06:48:36;;;;;;;10.05;3.65;;;;;;;21.90;41.09;100235.53;5113425;28;20055;-46
2023/11/07 06:51:02;;;;;;;9.38;4.70;;;;;;;22.09;40.91;100235.84;5113614;28;20064;-41
2023/11/07 06:53:28;;;;;;;9.40;4.70;;;;;;;22.12;40.58;100240.72;5114190;28;20059;-40
2023/11/07 06:55:54;;;;;;;7.38;4.50;;;;;;;22.44;40.15;100235.91;5113860;28;20441;-38
2023/11/07 06:58:20;;;;;;;5.53;3.45;;;;;;;22.66;39.29;100229.41;5113671;28;20023;-41
2023/11/07 07:00:45;;;;;;;10.32;6.40;;;;;;;23.09;38.34;100231.81;5113761;28;20043;-39
2023/11/07 07:03:11;;;;;;;8.93;4.15;;;;;;;23.20;38.38;100234.22;5113131;28;20107;-39
2023/11/07 07:05:37;;;;;;;7.60;3.60;;;;;;;23.43;37.81;100226.56;5113267;28;20150;-39
2023/11/07 07:08:03;;;;;;;14.60;3.67;;;;;;;23.69;37.04;100238.13;5113430;28;20376;-41
2023/11/07 07:10:29;;;;;;;8.82;3.03;;;;;;;23.95;36.50;100243.47;5112998;28;20452;-39
2023/11/07 07:12:54;;;;;;;7.70;3.28;;;;;;;24.08;36.08;100234.69;5112698;28;20474;-40
2023/11/07 07:15:19;;;;;;;8.27;3.38;;;;;;;23.38;37.10;100240.16;5111584;28;20035;-37
2023/11/07 07:17:45;;;;;;;6.03;3.05;;;;;;;23.98;36.11;100232.84;5110955;28;20015;-39
2023/11/07 07:20:11;;;;;;;8.40;2.90;;;;;;;24.26;35.17;100225.06;5112006;28;20489;-40
2023/11/07 07:22:44;;;;;;;9.13;4.30;;;;;;;24.50;35.29;100232.47;5111650;28;20023;-39
2023/11/07 07:25:15;;;;;;;7.57;4.30;;;;;;;24.71;35.10;100239.44;5111727;28;20479;-38
2023/11/07 07:27:47;;;;;;;10.70;4.43;;;;;;;24.83;34.19;100225.44;5111714;28;20026;-39
2023/11/07 07:30:20;;;;;;;6.88;3.63;;;;;;;25.14;33.64;100227.84;5112280;28;20023;-41
2023/11/07 07:32:49;;;;;;;11.18;3.30;;;;;;;24.96;33.94;100226.69;5094215;28;20020;-40
2023/11/07 07:35:16;;;;;;;11.85;3.90;;;;;;;25.21;33.98;100233.75;5112272;28;20023;-38
2023/11/07 07:37:53;;;;;;;7.95;3.30;;;;;;;25.18;34.08;100234.31;5112033;28;20015;-39
2023/11/07 07:40:25;;;;;;;10.05;3.70;;;;;;;25.43;33.40;100235.16;5111891;28;20055;-40
2023/11/07 07:42:53;;;;;;;9.77;3.63;;;;;;;25.10;33.92;100237.69;5112025;28;20031;-39
2023/11/07 07:45:19;;;;;;;9.38;3.42;;;;;;;25.25;33.86;100236.75;5111957;28;20038;-39
2023/11/07 07:47:45;;;;;;;9.52;3.47;;;;;;;25.29;33.80;100237.78;5111853;28;20071;-39
2023/11/07 07:50:11;;;;;;;8.40;3.17;;;;;;;25.23;33.99;100242.47;5112004;28;20483;-39
2023/11/07 07:52:45;;;;;;;6.70;3.60;;;;;;;25.46;33.56;100232.69;5112169;28;20106;-39
2023/11/07 07:55:11;;;;;;;8.07;3.67;;;;;;;25.64;33.71;100230.28;5111924;28;20092;-39
2023/11/07 07:57:37;;;;;;;12.25;3.80;;;;;;;25.89;33.42;100229.13;5111877;28;20031;-41
2023/11/07 08:00:12;;;;;;;8.95;3.42;;;;;;;25.85;33.31;100228.09;5111989;28;20019;-40
2023/11/07 08:02:46;;;;;;;8.93;3.38;;;;;;;25.71;33.19;100226.09;5112414;28;20114;-44
2023/11/07 08:05:17;;;;;;;8.30;3.58;;;;;;;25.99;32.94;100234.47;5112146;28;20033;-40
2023/11/07 08:07:46;;;;;;;6.88;3.15;;;;;;;26.09;32.85;100236.25;5111770;28;20018;-39
2023/11/07 08:10:19;;;;;;;8.43;3.17;;;;;;;26.13;33.40;100232.63;5112504;28;20147;-40
2023/11/07 08:12:50;;;;;;;10.70;3.45;;;;;;;25.75;33.80;100234.50;5111970;28;20019;-40
2023/11/07 08:15:17;;;;;;;6.63;2.97;;;;;;;25.52;34.02;100227.97;5111948;28;20024;-39
2023/11/07 08:17:43;;;;;;;6.95;3.20;;;;;;;25.58;34.00;100242.34;5111700;28;20026;-39
2023/11/07 08:20:15;;;;;;;7.18;3.15;;;;;;;25.09;34.98;100238.78;5111615;28;20487;-40
2023/11/07 08:22:45;;;;;;;8.85;2.88;;;;;;;25.07;34.63;100249.16;5111380;28;20096;-39
2023/11/07 08:25:11;;;;;;;9.25;3.35;;;;;;;25.39;33.96;100245.03;5111443;28;20462;-38
2023/11/07 08:27:38;;;;;;;6.85;2.70;;;;;;;25.55;34.16;100251.91;5111498;28;20022;-41
2023/11/07 08:30:09;;;;;;;7.45;3.15;;;;;;;26.01;33.79;100258.69;5112053;28;20027;-41
2023/11/07 08:32:35;;;;;;;11.43;3.13;;;;;;;25.70;34.14;100262.63;5111359;28;20023;-40
2023/11/07 08:35:03;;;;;;;6.80;2.83;;;;;;;25.81;33.59;100255.13;5111665;28;20532;-41
2023/11/07 08:37:30;;;;;;;;;;;;;;;26.21;33.20;100263.06;5111727;28;20015;-40
2023/11/07 08:39:57;;;;;;;6.80;2.85;;;;;;;25.62;34.21;100257.81;5111218;28;19911;-40
2023/11/07 08:42:25;;;;;;;5.30;2.83;;;;;;;25.90;34.07;100258.81;5111261;28;20019;-41
2023/11/07 08:44:50;;;;;;;5.55;2.80;;;;;;;25.85;34.57;100249.91;5111266;28;20066;-46
2023/11/07 08:47:18;;;;;;;6.32;3.15;;;;;;;25.65;34.68;100253.72;5111471;28;20039;-40
2023/11/07 08:49:43;;;;;;;6.68;3.17;;;;;;;25.89;34.34;100250.91;5111411;28;20043;-41
2023/11/07 08:52:09;;;;;;;7.53;3.00;;;;;;;26.34;33.44;100254.13;5111357;28;20023;-39
2023/11/07 08:54:36;;;;;;;6.40;3.03;;;;;;;25.93;33.83;100254.72;5110964;28;20146;-39
2023/11/07 08:57:02;;;;;;;9.43;2.90;;;;;;;26.07;33.96;100249.34;5111172;28;20383;-39
2023/11/07 08:59:28;;;;;;;7.50;3.08;;;;;;;26.42;33.42;100245.25;5111054;28;20020;-39
2023/11/07 09:01:55;;;;;;;9.20;3.17;;;;;;;26.56;33.78;100252.69;5110816;28;20019;-39
2023/11/07 09:04:20;;;;;;;5.57;2.40;;;;;;;26.69;32.43;100243.75;5111180;28;20104;-41
2023/11/07 09:06:45;;;;;;;4.63;2.30;;;;;;;26.78;32.12;100250.16;5110854;28;20122;-39
2023/11/07 09:09:14;;;;;;;7.28;3.08;;;;;;;26.61;32.17;100239.00;5111180;28;20107;-41
2023/11/07 09:11:45;;;;;;;5.20;2.30;;;;;;;26.87;31.92;100242.09;5111457;28;20035;-39
2023/11/07 09:14:11;;;;;;;5.15;2.42;;;;;;;26.59;32.38;100246.66;5111171;28;20032;-39
2023/11/07 09:16:37;;;;;;;5.55;2.65;;;;;;;26.28;33.31;100236.22;5111039;28;20027;-42
2023/11/07 09:19:04;;;;;;;4.63;2.50;;;;;;;25.90;33.59;100237.00;5112273;28;20027;-40
2023/11/07 09:21:30;;;;;;;7.63;2.80;;;;;;;26.04;33.49;100239.03;5115711;28;20026;-40
2023/11/07 09:23:55;;;;;;;6.80;2.63;;;;;;;25.98;33.77;100237.50;5115328;28;20192;-39
2023/11/07 09:26:20;;;;;;;6.75;2.53;;;;;;;26.37;33.61;100234.44;5096466;28;20061;-39
2023/11/07 09:28:46;;;;;;;7.82;2.60;;;;;;;25.81;33.97;100224.34;5114720;28;20034;-39
2023/11/07 09:31:12;;;;;;;6.82;2.35;;;;;;;25.88;33.99;100222.88;5114641;28;20102;-40
2023/11/07 09:33:38;;;;;;;4.35;2.33;;;;;;;26.27;33.26;100216.34;5114546;28;20024;-40
2023/11/07 09:36:03;;;;;;;5.32;2.50;;;;;;;25.94;33.79;100210.81;5114753;28;20019;-39
2023/11/07 09:38:29;;;;;;;9.73;2.65;;;;;;;25.68;34.00;100199.44;5114435;28;20031;-37
2023/11/07 09:40:54;;;;;;;4.97;2.60;;;;;;;25.55;34.15;100197.41;5114571;28;20468;-38
2023/11/07 09:43:26;;;;;;;6.82;2.55;;;;;;;25.68;34.36;100196.72;5096002;28;20026;-40
2023/11/07 09:45:55;;;;;;;7.93;3.10;;;;;;;25.79;33.95;100182.94;5114500;28;20105;-41
2023/11/07 09:48:21;;;;;;;8.85;2.90;;;;;;;26.20;32.73;100185.88;5114540;28;20136;-39
2023/11/07 09:50:52;;;;;;;5.13;2.85;;;;;;;26.38;32.80;100177.97;5114219;28;20482;-41
2023/11/07 09:53:19;;;;;;;4.78;2.45;;;;;;;26.54;32.56;100165.69;5114197;28;20027;-40
2023/11/07 09:55:45;;;;;;;6.72;2.67;;;;;;;26.89;32.26;100163.44;5114503;28;20045;-42
2023/11/07 09:58:25;;;;;;;8.48;2.90;;;;;;;27.29;31.47;100155.56;5114372;28;20538;-40
2023/11/07 10:00:52;;;;;;;;;;;;;;;27.85;30.71;100151.59;5114742;28;20487;-40
2023/11/07 10:03:18;;;;;;;4.88;2.60;;;;;;;27.79;30.77;100147.34;5114422;28;20313;-40
2023/11/07 10:05:46;;;;;;;6.80;2.60;;;;;;;28.08;30.67;100148.88;5114343;28;20475;-43
2023/11/07 10:08:12;;;;;;;6.30;2.30;;;;;;;27.56;30.31;100151.97;5114181;28;20029;-44
2023/11/07 10:10:39;;;;;;;7.97;2.50;;;;;;;27.58;30.31;100138.00;5114389;28;20031;-39
2023/11/07 10:13:10;;;;;;;7.45;2.50;;;;;;;27.83;30.17;100134.66;5113977;28;20503;-42
2023/11/07 10:15:36;;;;;;;7.80;2.53;;;;;;;28.01;30.08;100135.66;5114163;28;20033;-40
2023/11/07 10:18:06;;;;;;;5.95;2.15;;;;;;;28.06;29.64;100119.13;5113693;28;20023;-42
2023/11/07 10:20:32;;;;;;;11.20;2.55;;;;;;;28.09;29.48;100117.69;5113997;28;20084;-39
2023/11/07 10:22:59;;;;;;;5.90;2.60;;;;;;;27.97;29.69;100117.41;5113798;28;20099;-40
2023/11/07 10:25:35;;;;;;;8.70;3.00;;;;;;;28.08;29.34;100113.31;5113912;28;20031;-42
2023/11/07 10:28:02;;;;;;;8.35;2.55;;;;;;;28.30;29.36;100107.03;5113549;28;20023;-42
2023/11/07 10:30:41;;;;;;;7.97;2.30;;;;;;;28.65;28.93;100110.78;5112688;28;20045;-40
2023/11/07 10:33:10;;;;;;;7.43;2.38;;;;;;;28.43;29.00;100099.84;5113350;28;20132;-39
2023/11/07 10:35:55;;;;;;;6.28;2.40;;;;;;;27.64;30.26;100112.97;5113628;28;20193;-43
2023/11/07 10:38:22;;;;;;;5.95;2.08;;;;;;;27.48;30.08;100107.03;5113660;28;20020;-43
2023/11/07 10:40:48;;;;;;;5.25;2.20;;;;;;;27.21;30.29;100098.91;5113249;28;20061;-41
2023/11/07 10:43:16;;;;;;;6.95;2.30;;;;;;;27.48;30.21;100100.78;5113682;28;20046;-46
2023/11/07 10:45:42;;;;;;;5.05;2.45;;;;;;;27.61;30.28;100094.47;5113378;28;20483;-40
2023/11/07 10:48:08;;;;;;;5.85;2.10;;;;;;;28.01;29.80;100089.16;5112963;28;20100;-41
2023/11/07 10:50:35;;;;;;;7.70;2.33;;;;;;;27.95;29.81;100082.22;5113482;28;20028;-39
2023/11/07 10:53:01;;;;;;;5.22;2.40;;;;;;;28.18;29.91;100087.63;5112844;28;20487;-41
2023/11/07 10:55:26;;;;;;;4.65;2.17;;;;;;;28.59;29.34;100090.13;5112902;28;20030;-41
2023/11/07 10:57:58;;;;;;;5.25;2.20;;;;;;;28.89;29.22;100084.91;5112856;28;20031;-43
2023/11/07 11:00:27;;;;;;;7.60;2.58;;;;;;;29.07;28.34;100091.22;5113339;28;20114;-42
2023/11/07 11:02:55;;;;;;;8.63;2.45;;;;;;;29.25;28.32;100083.88;5094698;28;20036;-41
2023/11/07 11:05:24;;;;;;;7.00;2.30;;;;;;;29.19;27.55;100077.75;5112628;28;20059;-44
2023/11/07 11:07:51;;;;;;;4.97;1.98;;;;;;;28.71;27.71;100064.06;5113110;28;20453;-42
2023/11/07 11:10:27;;;;;;;5.38;2.05;;;;;;;28.59;27.69;100061.94;5112892;28;20410;-40
2023/11/07 11:12:54;;;;;;;4.88;2.38;;;;;;;27.88;29.66;100049.81;5112328;28;20107;-42
2023/11/07 11:15:21;;;;;;;6.65;2.03;;;;;;;28.24;29.55;100037.94;5112852;28;20098;-39
2023/11/07 11:17:55;;;;;;;5.18;2.38;;;;;;;28.61;28.96;100041.34;5112720;28;20023;-42
2023/11/07 11:20:35;;;;;;;6.22;2.20;;;;;;;28.78;28.94;100048.78;5112810;28;20031;-43
2023/11/07 11:23:07;;;;;;;4.68;2.35;;;;;;;28.50;28.90;100041.91;5113124;28;20071;-41